Time;durP1;ratioP1;P1;durP2;ratioP2;P2;SDS_P1;SDS_P2;PMS_P1;PMS_P2;Temp;Humidity;BMP_temperature;BMP_pressure;BME280_temperature;BME280_humidity;BME280_pressure;Samples;Min_cycle;Max_cycle;Signal;HPM_P1;HPM_P2
2021/03/28 00:02:27;;;;;;;19.65;5.38;;;4.20;91.80;;;;;;5026833;28;20053;-79
2021/03/28 00:04:54;;;;;;;19.67;4.85;;;4.20;91.90;;;;;;5017860;28;20049;-79
2021/03/28 00:07:23;;;;;;;14.95;4.10;;;4.20;92.20;;;;;;5023530;28;20033;-79
2021/03/28 00:09:57;;;;;;;12.25;3.67;;;4.20;92.00;;;;;;5032970;28;23781;-79
2021/03/28 00:12:26;;;;;;;18.40;4.75;;;4.30;92.00;;;;;;5027005;28;20038;-79
2021/03/28 00:15:17;;;;;;;16.92;5.05;;;4.30;92.00;;;;;;5018346;28;20500;-79
2021/03/28 00:17:50;;;;;;;18.23;4.32;;;4.30;92.00;;;;;;5027620;28;20391;-79
2021/03/28 00:20:16;;;;;;;18.13;4.93;;;4.30;92.20;;;;;;5021306;28;20466;-79
2021/03/28 00:22:47;;;;;;;16.42;3.97;;;4.20;92.20;;;;;;5024119;28;20048;-79
2021/03/28 00:25:51;;;;;;;16.13;4.25;;;4.30;92.30;;;;;;5031849;28;20366;-78
2021/03/28 00:28:36;;;;;;;14.27;4.50;;;4.30;92.30;;;;;;5028973;28;20053;-78
2021/03/28 00:31:22;;;;;;;14.85;4.30;;;4.20;92.40;;;;;;5007333;28;20490;-78
2021/03/28 00:34:00;;;;;;;18.42;4.32;;;4.20;92.50;;;;;;5024735;28;20037;-78
2021/03/28 00:36:35;;;;;;;22.52;4.20;;;4.20;92.70;;;;;;5033222;28;20368;-78
2021/03/28 00:39:05;;;;;;;;;;;4.20;92.80;;;;;;5031443;28;20072;-78
2021/03/28 00:41:53;;;;;;;20.77;5.60;;;4.10;92.70;;;;;;5020168;28;19921;-78
2021/03/28 00:44:21;;;;;;;18.90;5.00;;;4.20;93.10;;;;;;5028980;28;20089;-78
2021/03/28 00:46:58;;;;;;;18.98;4.35;;;4.20;93.30;;;;;;5027528;28;20049;-78
2021/03/28 00:49:41;;;;;;;18.83;4.32;;;4.20;93.40;;;;;;5031302;28;20049;-78
2021/03/28 00:52:16;;;;;;;17.40;5.15;;;4.20;93.50;;;;;;5020676;28;20119;-79
2021/03/28 00:54:46;;;;;;;;;;;4.20;93.60;;;;;;5025578;28;20056;-79
2021/03/28 00:57:21;;;;;;;19.40;4.90;;;4.20;93.60;;;;;;5025201;28;20413;-79
2021/03/28 01:00:10;;;;;;;22.88;5.00;;;4.30;93.80;;;;;;5027429;28;20080;-79
2021/03/28 01:02:42;;;;;;;23.08;4.93;;;4.30;93.80;;;;;;5027453;28;20490;-79
2021/03/28 01:05:43;;;;;;;15.10;5.15;;;4.30;93.80;;;;;;5034186;28;20034;-79
2021/03/28 01:08:20;;;;;;;19.33;4.38;;;4.40;93.90;;;;;;5019060;28;20504;-79
2021/03/28 01:11:07;;;;;;;20.33;4.45;;;4.40;93.90;;;;;;5026857;28;20069;-79
2021/03/28 01:13:38;;;;;;;21.55;4.68;;;4.40;94.00;;;;;;5028151;28;20041;-80
2021/03/28 01:16:25;;;;;;;19.05;4.43;;;4.40;94.00;;;;;;5030739;28;20072;-80
2021/03/28 01:19:33;;;;;;;18.27;4.70;;;4.40;94.00;;;;;;5025890;28;20047;-79
2021/03/28 01:22:23;;;;;;;26.35;5.40;;;4.40;94.00;;;;;;5024766;28;20036;-79
2021/03/28 01:24:49;;;;;;;17.40;4.97;;;4.40;94.20;;;;;;5026482;28;20217;-79
2021/03/28 01:27:35;;;;;;;19.35;4.40;;;4.40;94.20;;;;;;5027600;28;20033;-79
2021/03/28 01:30:13;;;;;;;20.42;4.45;;;4.40;94.20;;;;;;5023899;28;20050;-80
2021/03/28 01:32:45;;;;;;;21.92;5.57;;;4.40;94.30;;;;;;5000847;28;20052;-79
2021/03/28 01:35:12;;;;;;;16.25;5.03;;;4.40;94.40;;;;;;5031532;28;20509;-79
2021/03/28 01:37:57;;;;;;;25.45;5.38;;;4.40;94.40;;;;;;5025836;28;20618;-79
2021/03/28 01:41:03;;;;;;;20.00;4.73;;;4.40;94.40;;;;;;5027689;28;20529;-79
2021/03/28 01:43:46;;;;;;;21.35;4.63;;;4.40;94.50;;;;;;4953051;28;20150;-79
2021/03/28 01:46:37;;;;;;;21.90;4.90;;;4.40;94.50;;;;;;5022513;28;20080;-79
2021/03/28 01:49:18;;;;;;;19.27;4.97;;;4.40;94.50;;;;;;5024602;28;20486;-77
2021/03/28 01:52:01;;;;;;;18.08;4.60;;;4.50;94.50;;;;;;5029441;28;20056;-78
2021/03/28 01:54:53;;;;;;;19.20;5.70;;;4.40;94.40;;;;;;5022124;28;20041;-78
2021/03/28 01:57:42;;;;;;;23.15;5.28;;;4.40;94.50;;;;;;5027876;28;20050;-78
2021/03/28 02:00:32;;;;;;;20.63;5.22;;;4.40;94.50;;;;;;5022720;28;20042;-78
2021/03/28 02:03:23;;;;;;;22.35;4.63;;;4.40;94.50;;;;;;5027937;28;20460;-78
2021/03/28 02:06:19;;;;;;;13.32;4.70;;;4.30;94.50;;;;;;5015974;28;20042;-78
2021/03/28 02:08:48;;;;;;;12.77;4.47;;;4.40;94.50;;;;;;5024389;28;20129;-78
2021/03/28 02:11:44;;;;;;;13.13;4.05;;;4.40;94.60;;;;;;5023036;28;20112;-78
2021/03/28 02:14:22;;;;;;;19.20;5.13;;;4.40;94.60;;;;;;5026507;28;20036;-78
2021/03/28 02:17:17;;;;;;;22.25;4.97;;;4.30;94.70;;;;;;5018810;28;20555;-78
2021/03/28 02:20:10;;;;;;;14.10;4.07;;;4.30;94.70;;;;;;5021567;28;20026;-78
2021/03/28 02:23:00;;;;;;;18.60;4.85;;;4.40;94.80;;;;;;5026888;28;20044;-78
2021/03/28 02:25:52;;;;;;;20.48;4.28;;;4.40;94.90;;;;;;5016554;28;20076;-78
2021/03/28 02:28:48;;;;;;;18.35;4.43;;;4.50;94.80;;;;;;5024474;28;20092;-78
2021/03/28 02:31:26;;;;;;;16.90;4.07;;;4.50;94.90;;;;;;5015587;28;20057;-78
2021/03/28 02:34:09;;;;;;;18.08;4.50;;;4.60;94.90;;;;;;5026162;28;20394;-78
2021/03/28 02:36:56;;;;;;;21.02;5.18;;;4.60;94.80;;;;;;5004990;28;20060;-78
2021/03/28 02:39:28;;;;;;;23.45;4.60;;;4.60;94.70;;;;;;5044050;28;20072;-78
2021/03/28 02:42:14;;;;;;;15.45;4.00;;;4.70;94.70;;;;;;5024330;28;20409;-78
2021/03/28 02:45:06;;;;;;;18.35;4.57;;;4.80;94.70;;;;;;5021107;28;20446;-78
2021/03/28 02:47:51;;;;;;;17.52;4.80;;;4.80;94.50;;;;;;5019509;28;20096;-78
2021/03/28 02:50:47;;;;;;;23.10;4.43;;;4.90;94.50;;;;;;5028010;28;20107;-78
2021/03/28 02:53:35;;;;;;;21.67;5.32;;;4.90;94.30;;;;;;5023415;28;20026;-78
2021/03/28 02:56:00;;;;;;;18.13;5.03;;;4.90;94.30;;;;;;5019694;28;20116;-78
2021/03/28 02:59:11;;;;;;;16.17;5.18;;;4.90;94.40;;;;;;5026148;28;20922;-78
2021/03/28 03:01:46;;;;;;;19.65;4.60;;;5.00;94.20;;;;;;5014546;28;20140;-78
2021/03/28 03:04:39;;;;;;;18.48;4.60;;;5.00;94.20;;;;;;5027446;28;20052;-78
2021/03/28 03:07:11;;;;;;;21.60;4.53;;;5.00;94.20;;;;;;5013354;28;20516;-78
2021/03/28 03:10:11;;;;;;;14.63;3.78;;;5.00;94.20;;;;;;5022775;28;20137;-78
2021/03/28 03:12:56;;;;;;;15.77;4.38;;;5.00;94.10;;;;;;5017603;28;20049;-78
2021/03/28 03:15:37;;;;;;;21.90;4.80;;;5.00;94.30;;;;;;5026843;28;20405;-78
2021/03/28 03:18:18;;;;;;;19.20;5.50;;;5.00;94.30;;;;;;5018722;28;20045;-78
2021/03/28 03:21:24;;;;;;;15.98;4.43;;;5.00;94.30;;;;;;5026623;28;20863;-78
2021/03/28 03:24:09;;;;;;;;;;;5.00;94.40;;;;;;5019759;28;20037;-78
2021/03/28 03:26:46;;;;;;;15.40;4.85;;;5.00;93.90;;;;;;5029683;28;19921;-78
2021/03/28 03:29:34;;;;;;;20.17;5.40;;;5.00;94.40;;;;;;5020411;28;20033;-78
2021/03/28 03:32:24;;;;;;;16.58;4.55;;;5.00;94.40;;;;;;5023226;28;20037;-78
2021/03/28 03:35:28;;;;;;;19.30;5.38;;;5.00;94.40;;;;;;5024138;28;20037;-78
2021/03/28 03:38:21;;;;;;;16.30;5.03;;;5.10;94.50;;;;;;4977027;28;20076;-78
2021/03/28 03:41:00;;;;;;;15.98;4.70;;;5.10;94.60;;;;;;5019469;28;20596;-78
2021/03/28 03:43:26;;;;;;;17.40;4.82;;;5.10;94.60;;;;;;5022547;28;20065;-78
2021/03/28 03:46:28;;;;;;;15.05;4.82;;;5.10;94.60;;;;;;5025601;28;20110;-78
2021/03/28 03:49:10;;;;;;;18.80;5.05;;;5.00;94.60;;;;;;5016821;28;20480;-78
2021/03/28 03:51:54;;;;;;;22.27;5.28;;;5.10;94.70;;;;;;5018668;28;20117;-78
2021/03/28 03:54:49;;;;;;;13.20;4.57;;;5.00;94.70;;;;;;5015507;28;20558;-78
2021/03/28 03:57:18;;;;;;;15.38;4.93;;;5.00;94.70;;;;;;5020678;28;20069;-78
2021/03/28 04:00:05;;;;;;;20.60;5.18;;;5.00;94.80;;;;;;5021077;28;20037;-78
2021/03/28 04:02:49;;;;;;;18.45;4.60;;;5.00;94.90;;;;;;5038637;28;20046;-78
2021/03/28 04:05:17;;;;;;;18.23;4.93;;;5.00;94.90;;;;;;5020435;28;20466;-78
2021/03/28 04:08:10;;;;;;;18.73;5.05;;;4.90;95.00;;;;;;5018071;28;20045;-78
2021/03/28 04:11:06;;;;;;;20.85;5.57;;;4.90;95.10;;;;;;5017852;28;20048;-78
2021/03/28 04:14:10;;;;;;;21.77;5.60;;;4.90;95.20;;;;;;5017808;28;20038;-78
2021/03/28 04:16:48;;;;;;;14.38;4.55;;;4.90;95.20;;;;;;5021687;28;20496;-78
2021/03/28 04:19:33;;;;;;;15.23;4.57;;;4.80;95.30;;;;;;5021775;28;20060;-78
2021/03/28 04:22:20;;;;;;;15.27;5.60;;;4.90;95.40;;;;;;5024634;28;20045;-78
2021/03/28 04:25:05;;;;;;;20.80;5.28;;;4.80;95.40;;;;;;5020584;28;20042;-78
2021/03/28 04:27:58;;;;;;;23.42;5.78;;;4.80;95.40;;;;;;4998763;28;20046;-78
2021/03/28 04:30:59;;;;;;;17.05;5.53;;;4.80;95.50;;;;;;5016799;28;20050;-78
2021/03/28 04:33:47;;;;;;;16.73;5.40;;;4.80;95.50;;;;;;5040278;28;20060;-78
2021/03/28 04:36:33;;;;;;;16.05;4.43;;;4.70;95.60;;;;;;5016733;28;20033;-78
2021/03/28 04:39:02;;;;;;;26.80;5.40;;;4.70;95.70;;;;;;5015241;28;20037;-78
2021/03/28 04:42:02;;;;;;;21.55;5.72;;;4.70;95.60;;;;;;5016355;28;20053;-78
2021/03/28 04:44:36;;;;;;;18.75;5.63;;;4.70;95.70;;;;;;5023509;28;20401;-78
2021/03/28 04:47:24;;;;;;;19.38;5.38;;;4.60;95.70;;;;;;5020683;28;20116;-78
2021/03/28 04:50:04;;;;;;;21.75;5.75;;;4.70;95.70;;;;;;5020876;28;20061;-78
2021/03/28 04:52:54;;;;;;;19.48;5.38;;;4.70;95.90;;;;;;5019684;28;20041;-78
2021/03/28 04:55:20;;;;;;;14.48;5.20;;;4.70;95.80;;;;;;5025176;28;20054;-78
2021/03/28 04:58:11;;;;;;;20.98;5.22;;;4.60;95.70;;;;;;5017792;28;20185;-78
2021/03/28 05:00:50;;;;;;;21.00;5.97;;;4.60;95.80;;;;;;5008721;28;20104;-79
2021/03/28 05:03:49;;;;;;;19.50;6.13;;;4.50;96.00;;;;;;5035781;28;20536;-78
2021/03/28 05:06:39;;;;;;;16.60;5.68;;;4.50;95.90;;;;;;5032294;28;20054;-78
2021/03/28 05:09:13;;;;;;;17.98;5.53;;;4.60;95.90;;;;;;5016721;28;20088;-78
2021/03/28 05:12:10;;;;;;;16.40;5.67;;;4.50;96.00;;;;;;5015950;28;20045;-77
2021/03/28 05:15:10;;;;;;;20.15;5.95;;;4.50;96.40;;;;;;5023166;28;20081;-78
2021/03/28 05:17:58;;;;;;;18.67;5.50;;;4.50;96.10;;;;;;5018841;28;20160;-77
2021/03/28 05:20:51;;;;;;;18.83;5.80;;;4.50;96.10;;;;;;5024266;28;20061;-77
2021/03/28 05:23:29;;;;;;;16.60;6.20;;;4.50;96.20;;;;;;5015668;28;20040;-78
2021/03/28 05:26:13;;;;;;;18.05;5.78;;;4.60;96.20;;;;;;5030241;28;20030;-78
2021/03/28 05:29:00;;;;;;;18.45;5.90;;;4.60;96.10;;;;;;5018018;28;20165;-77
2021/03/28 05:31:51;;;;;;;18.75;5.43;;;4.60;96.20;;;;;;5028201;28;20037;-79
2021/03/28 05:34:29;;;;;;;17.13;5.13;;;4.80;96.30;;;;;;5020236;28;20065;-78
2021/03/28 05:37:25;;;;;;;19.42;5.82;;;4.80;96.30;;;;;;5029795;28;20033;-78
2021/03/28 05:40:04;;;;;;;21.95;6.43;;;4.90;96.20;;;;;;5019113;28;20037;-78
2021/03/28 05:43:04;;;;;;;16.80;5.78;;;5.00;96.10;;;;;;5018909;28;20052;-79
2021/03/28 05:45:59;;;;;;;17.27;4.88;;;5.00;96.00;;;;;;5020211;28;20052;-78
2021/03/28 05:48:55;;;;;;;20.35;5.25;;;5.10;95.90;;;;;;5032749;28;20048;-78
2021/03/28 05:51:51;;;;;;;19.35;5.55;;;5.20;95.80;;;;;;5027403;28;20034;-78
2021/03/28 05:55:02;;;;;;;19.52;5.97;;;5.20;96.00;;;;;;5023478;28;20041;-78
2021/03/28 05:58:00;;;;;;;15.75;4.72;;;5.30;95.70;;;;;;5018218;28;20099;-78
2021/03/28 06:00:32;;;;;;;16.15;5.25;;;5.30;95.70;;;;;;5024661;28;20068;-78
2021/03/28 06:03:43;;;;;;;15.13;5.32;;;5.40;95.80;;;;;;5028536;28;20541;-78
2021/03/28 06:06:35;;;;;;;18.20;5.70;;;5.60;95.60;;;;;;5004472;28;20068;-78
2021/03/28 06:09:39;;;;;;;16.25;4.78;;;5.90;95.50;;;;;;5015370;28;20037;-78
2021/03/28 06:12:24;;;;;;;15.98;4.75;;;6.00;94.90;;;;;;5023492;28;20044;-77
2021/03/28 06:15:11;;;;;;;19.42;4.75;;;6.10;94.70;;;;;;5023839;28;20041;-77
2021/03/28 06:18:08;;;;;;;17.67;4.93;;;6.30;94.70;;;;;;5024582;28;20038;-78
2021/03/28 06:20:34;;;;;;;9.38;4.05;;;6.30;94.00;;;;;;5019353;28;20041;-78
2021/03/28 06:23:38;;;;;;;15.60;4.38;;;6.40;94.30;;;;;;5022051;28;20060;-78
2021/03/28 06:26:19;;;;;;;16.42;4.18;;;6.40;94.00;;;;;;5010645;28;20084;-78
2021/03/28 06:29:05;;;;;;;13.32;4.18;;;6.40;94.20;;;;;;5007278;28;20057;-79
2021/03/28 06:31:56;;;;;;;12.43;3.50;;;6.40;94.20;;;;;;5016844;28;20438;-78
2021/03/28 06:34:41;;;;;;;15.65;3.85;;;6.50;94.10;;;;;;5014075;28;20386;-79
2021/03/28 06:37:49;;;;;;;10.07;3.00;;;6.70;94.40;;;;;;5011816;28;20554;-78
2021/03/28 06:40:39;;;;;;;17.40;3.80;;;6.90;94.10;;;;;;5004180;28;20079;-79
2021/03/28 06:43:25;;;;;;;10.45;3.25;;;7.20;94.10;;;;;;5024360;28;20045;-78
2021/03/28 06:46:10;;;;;;;10.23;3.27;;;7.40;92.70;;;;;;5003393;28;20038;-79
2021/03/28 06:49:23;;;;;;;9.67;3.13;;;7.60;92.30;;;;;;5019951;28;20624;-79
2021/03/28 06:52:09;;;;;;;11.35;3.28;;;7.60;92.30;;;;;;4971843;28;20050;-79
2021/03/28 06:55:06;;;;;;;11.63;2.63;;;7.60;92.50;;;;;;5004209;28;20145;-79
2021/03/28 06:58:17;;;;;;;10.77;2.55;;;7.70;92.00;;;;;;5008527;28;20104;-79
2021/03/28 07:01:19;;;;;;;13.70;3.30;;;7.80;92.20;;;;;;4983456;28;20138;-79
2021/03/28 07:03:51;;;;;;;14.98;2.60;;;7.90;91.80;;;;;;4988119;28;20065;-79
2021/03/28 07:06:35;;;;;;;9.32;2.50;;;8.10;91.70;;;;;;4996767;28;20053;-79
2021/03/28 07:09:36;;;;;;;13.52;2.70;;;8.20;91.40;;;;;;5010683;28;20068;-79
2021/03/28 07:12:43;;;;;;;12.00;2.83;;;8.30;90.90;;;;;;5006687;28;20042;-79
2021/03/28 07:15:27;;;;;;;10.65;3.15;;;8.30;90.70;;;;;;4988557;28;20050;-79
2021/03/28 07:18:31;;;;;;;12.25;2.45;;;8.30;91.00;;;;;;5016873;28;20468;-79
2021/03/28 07:21:08;;;;;;;12.00;3.03;;;8.30;89.50;;;;;;5019137;28;20054;-79
2021/03/28 07:23:59;;;;;;;9.85;2.05;;;8.30;90.20;;;;;;5007417;28;20449;-80
2021/03/28 07:27:05;;;;;;;13.05;2.45;;;8.50;90.30;;;;;;5017794;28;20041;-80
2021/03/28 07:30:04;;;;;;;8.98;2.00;;;8.60;90.00;;;;;;5010063;28;20043;-79
2021/03/28 07:32:45;;;;;;;15.05;3.00;;;8.60;88.70;;;;;;5005795;28;20034;-79
2021/03/28 07:36:02;;;;;;;12.95;3.10;;;8.70;90.40;;;;;;5008732;28;20046;-80
2021/03/28 07:39:07;;;;;;;9.90;2.05;;;8.80;88.70;;;;;;4978150;28;20133;-80
2021/03/28 07:41:54;;;;;;;6.13;1.90;;;8.80;89.10;;;;;;4983731;28;20058;-79
2021/03/28 07:44:42;;;;;;;7.97;2.47;;;8.90;90.20;;;;;;4999964;28;20386;-79
2021/03/28 07:47:45;;;;;;;14.25;2.58;;;9.00;90.20;;;;;;4999889;28;20145;-80
2021/03/28 07:50:36;;;;;;;12.13;2.15;;;9.00;87.60;;;;;;5006110;28;20125;-80
2021/03/28 07:53:13;;;;;;;11.13;2.33;;;9.00;88.60;;;;;;5001222;28;20129;-79
2021/03/28 07:56:29;;;;;;;12.18;2.58;;;9.10;89.40;;;;;;4999552;28;20046;-79
2021/03/28 07:58:58;;;;;;;;;;;9.10;86.10;;;;;;4977701;28;20097;-79
2021/03/28 08:01:50;;;;;;;10.15;1.90;;;9.20;86.90;;;;;;4972279;28;19918;-80
2021/03/28 08:04:37;;;;;;;10.95;2.50;;;9.50;89.00;;;;;;4992346;28;20054;-79
2021/03/28 08:07:39;;;;;;;6.38;1.90;;;9.70;85.60;;;;;;5026699;28;20375;-79
2021/03/28 08:10:43;;;;;;;14.32;2.88;;;10.00;85.10;;;;;;5013972;28;20469;-80
2021/03/28 08:13:37;;;;;;;9.95;2.42;;;10.20;84.90;;;;;;5005590;28;20061;-80
2021/03/28 08:16:38;;;;;;;9.85;2.85;;;10.30;83.40;;;;;;5007088;28;20137;-81
2021/03/28 08:19:26;;;;;;;12.05;2.47;;;10.40;82.00;;;;;;5011703;28;20082;-80
2021/03/28 08:22:32;;;;;;;8.02;2.35;;;10.30;84.20;;;;;;5022233;28;20037;-78
2021/03/28 08:25:15;;;;;;;11.60;2.35;;;10.60;83.20;;;;;;4998786;28;20065;-79
2021/03/28 08:27:54;;;;;;;11.63;2.45;;;10.90;82.40;;;;;;5016549;28;20730;-79
2021/03/28 08:30:50;;;;;;;9.95;2.08;;;11.00;83.10;;;;;;5002791;28;20642;-79
2021/03/28 08:33:58;;;;;;;11.45;1.67;;;11.10;80.30;;;;;;5006166;28;20134;-80
2021/03/28 08:36:39;;;;;;;7.78;1.95;;;11.10;78.60;;;;;;5021045;28;20041;-79
2021/03/28 08:39:46;;;;;;;12.65;2.40;;;11.00;79.30;;;;;;5003680;28;20038;-79
2021/03/28 08:42:44;;;;;;;8.90;1.90;;;11.20;80.50;;;;;;5003746;28;20160;-79
2021/03/28 08:45:28;;;;;;;9.07;2.13;;;11.30;79.70;;;;;;4988247;28;20130;-80
2021/03/28 08:48:31;;;;;;;10.23;2.42;;;11.40;77.30;;;;;;5018495;28;20042;-77
2021/03/28 08:51:22;;;;;;;9.27;1.95;;;11.30;77.00;;;;;;4994406;28;20038;-78
2021/03/28 08:54:18;;;;;;;9.50;1.63;;;11.20;76.80;;;;;;4996843;28;20050;-78
2021/03/28 08:57:01;;;;;;;11.57;2.15;;;11.20;77.50;;;;;;4995105;28;20728;-78
2021/03/28 09:00:16;;;;;;;8.50;2.00;;;11.20;76.40;;;;;;5007816;28;20058;-78
2021/03/28 09:03:10;;;;;;;10.90;2.50;;;11.20;75.60;;;;;;5002650;28;20047;-79
2021/03/28 09:06:12;;;;;;;8.30;1.90;;;11.40;76.80;;;;;;5002752;28;20107;-82
2021/03/28 09:09:27;;;;;;;9.15;2.13;;;11.80;74.20;;;;;;5001367;28;20050;-79
2021/03/28 09:12:26;;;;;;;11.02;2.08;;;12.20;73.90;;;;;;4978375;28;20046;-78
2021/03/28 09:14:54;;;;;;;;;;;12.60;73.30;;;;;;5022312;28;20057;-80
2021/03/28 09:17:58;;;;;;;8.73;2.05;;;12.80;69.30;;;;;;5023324;28;20407;-80
2021/03/28 09:20:28;;;;;;;11.98;1.85;;;12.90;71.30;;;;;;5011367;28;20037;-79
2021/03/28 09:23:22;;;;;;;8.32;2.22;;;12.80;71.10;;;;;;5006948;28;20452;-81
2021/03/28 09:26:01;;;;;;;6.97;1.77;;;13.00;69.90;;;;;;5010390;28;20123;-80
2021/03/28 09:29:15;;;;;;;12.40;1.58;;;13.10;67.20;;;;;;5016506;28;20041;-83
2021/03/28 09:31:41;;;;;;;8.05;1.50;;;13.20;65.50;;;;;;4996505;28;20128;-78
2021/03/28 09:34:46;;;;;;;9.02;1.73;;;13.30;68.40;;;;;;5004557;28;20061;-78
2021/03/28 09:37:35;;;;;;;6.18;1.63;;;13.60;63.50;;;;;;5003324;28;20057;-79
2021/03/28 09:40:35;;;;;;;10.10;2.28;;;13.80;63.20;;;;;;5005981;28;20041;-79
2021/03/28 09:43:13;;;;;;;5.47;1.73;;;13.90;61.60;;;;;;5004053;28;20104;-79
2021/03/28 09:46:24;;;;;;;7.15;1.65;;;13.90;64.90;;;;;;5024983;28;20064;-79
2021/03/28 09:49:25;;;;;;;6.57;1.63;;;13.90;60.40;;;;;;5015806;28;20654;-80
2021/03/28 09:52:10;;;;;;;7.93;1.90;;;14.00;60.00;;;;;;5001823;28;20042;-79
2021/03/28 09:55:15;;;;;;;5.40;1.58;;;14.10;64.60;;;;;;5023422;28;20041;-80
2021/03/28 09:58:26;;;;;;;8.93;2.03;;;14.30;62.90;;;;;;5002304;28;20058;-78
2021/03/28 10:01:22;;;;;;;9.15;1.90;;;14.30;63.80;;;;;;4970019;28;20093;-78
2021/03/28 10:04:13;;;;;;;7.45;1.60;;;14.30;61.50;;;;;;5015591;28;20453;-79
2021/03/28 10:06:56;;;;;;;6.68;1.70;;;14.10;60.80;;;;;;5020188;28;20042;-79
2021/03/28 10:09:46;;;;;;;5.35;1.60;;;14.00;65.10;;;;;;4987081;28;20141;-80
2021/03/28 10:12:40;;;;;;;7.75;2.05;;;13.80;62.00;;;;;;5006795;28;20094;-77
2021/03/28 10:15:14;;;;;;;5.90;1.77;;;13.60;63.60;;;;;;5013758;28;20451;-77
2021/03/28 10:18:10;;;;;;;7.85;1.65;;;13.60;65.30;;;;;;5019361;28;20168;-78
2021/03/28 10:21:02;;;;;;;9.50;2.08;;;13.50;63.30;;;;;;4993732;28;20057;-78
2021/03/28 10:23:50;;;;;;;5.78;1.92;;;13.50;64.90;;;;;;5000487;28;20042;-78
2021/03/28 10:26:43;;;;;;;6.53;2.25;;;13.50;66.10;;;;;;5029377;28;20038;-78
2021/03/28 10:29:44;;;;;;;5.65;1.88;;;13.40;66.30;;;;;;5002813;28;20038;-78
2021/03/28 10:32:44;;;;;;;8.63;1.77;;;13.40;62.40;;;;;;5005990;28;20082;-78
2021/03/28 10:35:55;;;;;;;11.13;2.63;;;13.30;64.80;;;;;;5017380;28;20069;-80
2021/03/28 10:38:44;;;;;;;6.22;1.85;;;13.20;66.80;;;;;;5022230;28;20045;-78
2021/03/28 10:41:40;;;;;;;8.07;2.28;;;13.10;67.50;;;;;;4988686;28;20050;-78
2021/03/28 10:44:47;;;;;;;7.13;1.65;;;12.70;67.90;;;;;;4998506;28;20045;-79
2021/03/28 10:47:32;;;;;;;9.60;2.10;;;12.40;70.00;;;;;;5005636;28;20049;-78
2021/03/28 10:50:35;;;;;;;11.25;2.28;;;12.20;74.60;;;;;;5016997;28;20371;-77
2021/03/28 10:53:43;;;;;;;10.13;1.83;;;12.10;72.80;;;;;;5002953;28;20407;-77
2021/03/28 10:57:01;;;;;;;14.88;6.70;;;12.00;75.50;;;;;;4980422;28;20049;-77
2021/03/28 10:59:33;;;;;;;11.23;2.10;;;11.80;74.80;;;;;;5000284;28;20545;-77
2021/03/28 11:02:36;;;;;;;10.30;2.08;;;11.60;77.10;;;;;;5002012;28;20153;-77
2021/03/28 11:05:24;;;;;;;12.85;3.00;;;11.50;79.00;;;;;;5012085;28;20062;-77
2021/03/28 11:08:12;;;;;;;12.98;2.85;;;11.40;80.20;;;;;;5002463;28;20095;-79
2021/03/28 11:11:04;;;;;;;11.05;2.28;;;11.40;81.30;;;;;;5003877;28;20053;-79
2021/03/28 11:13:32;;;;;;;9.45;2.00;;;11.40;82.30;;;;;;5019315;28;20049;-77
2021/03/28 11:16:13;;;;;;;10.27;2.70;;;11.30;82.00;;;;;;5012944;28;20046;-77
2021/03/28 11:19:11;;;;;;;10.73;4.07;;;11.20;81.70;;;;;;5017998;28;20030;-76
2021/03/28 11:22:08;;;;;;;9.52;2.80;;;11.20;83.30;;;;;;5012584;28;20033;-76
2021/03/28 11:24:52;;;;;;;10.63;2.45;;;11.20;82.50;;;;;;5024368;28;20512;-77
2021/03/28 11:27:36;;;;;;;8.60;2.47;;;11.10;84.00;;;;;;5019610;28;20072;-77
2021/03/28 11:30:11;;;;;;;8.57;2.42;;;11.20;83.60;;;;;;5020525;28;20029;-77
2021/03/28 11:32:48;;;;;;;9.00;2.05;;;11.20;85.20;;;;;;5016958;28;20065;-77
2021/03/28 11:35:18;;;;;;;10.25;3.05;;;11.20;83.60;;;;;;5025757;28;20112;-77
2021/03/28 11:37:54;;;;;;;9.95;2.42;;;11.20;84.30;;;;;;5021536;28;20030;-77
2021/03/28 11:40:35;;;;;;;10.75;2.38;;;11.10;84.40;;;;;;5026610;28;20476;-77
2021/03/28 11:43:06;;;;;;;10.27;2.67;;;11.20;85.80;;;;;;5011778;28;20109;-77
2021/03/28 11:45:45;;;;;;;12.80;3.13;;;11.10;85.00;;;;;;5017103;28;20041;-77
2021/03/28 11:48:36;;;;;;;9.70;2.28;;;11.10;86.00;;;;;;5019609;28;20052;-77
2021/03/28 11:51:39;;;;;;;8.18;2.63;;;11.10;87.30;;;;;;5026233;28;20100;-77
2021/03/28 11:54:15;;;;;;;9.02;2.50;;;10.90;86.90;;;;;;5012940;28;20050;-77
2021/03/28 11:57:05;;;;;;;9.00;2.90;;;10.80;88.10;;;;;;5014945;28;20072;-77
2021/03/28 11:59:40;;;;;;;10.90;2.75;;;10.80;88.70;;;;;;5018901;28;20478;-76
2021/03/28 12:02:05;;;;;;;;;;;10.70;88.30;;;;;;5020243;28;20406;-77
2021/03/28 12:04:47;;;;;;;12.63;3.55;;;10.60;88.50;;;;;;5025218;28;20040;-76
2021/03/28 12:07:20;;;;;;;13.85;3.90;;;10.70;90.40;;;;;;5021441;28;20470;-77
2021/03/28 12:10:02;;;;;;;11.27;3.38;;;10.60;90.00;;;;;;5021588;28;20037;-78
2021/03/28 12:12:39;;;;;;;12.98;3.95;;;10.70;90.40;;;;;;5002645;28;20442;-77
2021/03/28 12:15:42;;;;;;;9.77;3.58;;;10.70;90.70;;;;;;5022115;28;20473;-78
2021/03/28 12:18:16;;;;;;;12.55;3.63;;;10.70;90.70;;;;;;5017794;28;20095;-79
2021/03/28 12:20:42;;;;;;;13.43;3.40;;;10.60;90.70;;;;;;5016095;28;20038;-78
2021/03/28 12:23:27;;;;;;;9.82;4.20;;;10.50;91.50;;;;;;5019797;28;20445;-78
2021/03/28 12:26:10;;;;;;;17.38;4.05;;;10.50;91.30;;;;;;5041100;28;20077;-78
2021/03/28 12:28:45;;;;;;;12.43;3.60;;;10.50;91.40;;;;;;5024964;28;20085;-78
2021/03/28 12:31:32;;;;;;;11.95;3.50;;;10.40;91.90;;;;;;5020957;28;20036;-78
2021/03/28 12:34:07;;;;;;;11.30;3.47;;;10.40;92.20;;;;;;5013291;28;20453;-77
2021/03/28 12:37:08;;;;;;;9.20;3.13;;;10.40;92.10;;;;;;5020275;28;20059;-77
2021/03/28 12:39:40;;;;;;;10.77;3.20;;;10.30;92.40;;;;;;4985111;28;20054;-78
2021/03/28 12:42:35;;;;;;;15.77;3.47;;;10.30;92.60;;;;;;5024855;28;20041;-78
2021/03/28 12:45:07;;;;;;;10.40;3.20;;;10.30;92.40;;;;;;5023461;28;20053;-78
2021/03/28 12:47:47;;;;;;;13.10;3.67;;;10.30;92.20;;;;;;5025185;28;20478;-78
2021/03/28 12:50:14;;;;;;;9.95;3.47;;;10.20;92.20;;;;;;5021040;28;20034;-78
2021/03/28 12:52:51;;;;;;;17.95;3.90;;;10.20;92.20;;;;;;5021589;28;20047;-78
2021/03/28 12:55:30;;;;;;;16.98;4.38;;;10.20;92.60;;;;;;5024365;28;20056;-78
2021/03/28 12:58:10;;;;;;;15.05;4.38;;;10.20;92.40;;;;;;5021861;28;20153;-76
2021/03/28 13:00:56;;;;;;;11.82;3.95;;;10.20;92.90;;;;;;5024148;28;20469;-77
2021/03/28 13:03:39;;;;;;;14.88;3.88;;;10.20;93.00;;;;;;5022683;28;20026;-78
2021/03/28 13:06:38;;;;;;;13.77;4.13;;;10.30;93.10;;;;;;5018078;28;20045;-78
2021/03/28 13:09:10;;;;;;;14.00;4.20;;;10.40;92.40;;;;;;5025778;28;20450;-78
2021/03/28 13:12:08;;;;;;;12.90;3.97;;;10.40;92.20;;;;;;5022402;28;20460;-78
2021/03/28 13:14:43;;;;;;;12.15;3.50;;;10.60;92.10;;;;;;5012702;28;20135;-78
2021/03/28 13:17:14;;;;;;;11.35;2.95;;;10.70;91.90;;;;;;5034030;28;20081;-79
2021/03/28 13:19:53;;;;;;;14.10;3.30;;;10.70;91.30;;;;;;5022433;28;20160;-78
2021/03/28 13:22:34;;;;;;;12.73;3.20;;;10.70;90.20;;;;;;5034435;28;20041;-77
2021/03/28 13:25:28;;;;;;;14.77;3.38;;;10.60;90.80;;;;;;5029026;28;20061;-77
2021/03/28 13:28:01;;;;;;;11.82;3.47;;;10.60;90.30;;;;;;5023139;28;20149;-78
2021/03/28 13:30:36;;;;;;;11.77;2.95;;;10.60;91.00;;;;;;5016400;28;20385;-77
2021/03/28 13:33:21;;;;;;;11.57;2.72;;;10.60;90.60;;;;;;5032455;28;20041;-78
2021/03/28 13:35:50;;;;;;;15.55;2.80;;;10.70;91.10;;;;;;5018125;28;20504;-77
2021/03/28 13:38:27;;;;;;;9.90;2.97;;;10.70;91.20;;;;;;5022984;28;20454;-77
2021/03/28 13:40:56;;;;;;;18.80;3.90;;;10.80;91.30;;;;;;5014004;28;20109;-77
2021/03/28 13:43:27;;;;;;;12.20;2.95;;;10.70;91.20;;;;;;5019205;28;20107;-79
2021/03/28 13:46:15;;;;;;;13.98;2.83;;;10.60;91.40;;;;;;5024767;28;20053;-77
2021/03/28 13:48:42;;;;;;;16.42;3.30;;;10.50;90.90;;;;;;5030226;28;20025;-79
2021/03/28 13:51:18;;;;;;;12.35;3.00;;;10.40;91.70;;;;;;5023739;28;20447;-78
2021/03/28 13:53:49;;;;;;;9.90;2.40;;;10.40;91.70;;;;;;5020276;28;20399;-78
2021/03/28 13:56:32;;;;;;;13.73;3.15;;;10.40;91.70;;;;;;5022520;28;20040;-79
2021/03/28 13:59:11;;;;;;;11.82;2.85;;;10.40;91.90;;;;;;5019626;28;20045;-78
2021/03/28 14:01:40;;;;;;;12.48;3.78;;;10.40;92.20;;;;;;5017404;28;20041;-78
2021/03/28 14:04:42;;;;;;;12.80;3.13;;;10.40;92.70;;;;;;5027076;28;20046;-78
2021/03/28 14:07:21;;;;;;;15.75;3.50;;;10.40;92.10;;;;;;5020975;28;20064;-79
2021/03/28 14:09:56;;;;;;;13.38;3.03;;;10.50;92.80;;;;;;5018687;28;20427;-78
2021/03/28 14:12:25;;;;;;;;;;;10.40;92.20;;;;;;5011793;28;20180;-78
2021/03/28 14:15:22;;;;;;;11.93;3.05;;;10.40;90.70;;;;;;5016427;28;20011;-78
2021/03/28 14:18:13;;;;;;;14.75;3.60;;;10.40;92.40;;;;;;5014276;28;20100;-79
2021/03/28 14:20:43;;;;;;;15.00;3.50;;;10.40;93.30;;;;;;5025927;28;20037;-79
2021/03/28 14:23:09;;;;;;;10.88;3.22;;;10.40;93.40;;;;;;5017722;28;20132;-79
2021/03/28 14:25:55;;;;;;;13.55;3.13;;;10.30;93.40;;;;;;5028106;28;20469;-78
2021/03/28 14:28:50;;;;;;;16.15;3.47;;;10.30;92.90;;;;;;5022555;28;20100;-77